createdAt,value
2019-04-07T00:02:00.989Z,99.90
2019-04-07T00:04:31.097Z,99.90
2019-04-07T00:07:05.079Z,99.90
2019-04-07T00:09:54.143Z,99.90
2019-04-07T00:12:27.731Z,99.90
2019-04-07T00:14:57.946Z,99.90
2019-04-07T00:17:27.843Z,99.90
2019-04-07T00:19:58.120Z,99.90
2019-04-07T00:22:52.420Z,99.90
2019-04-07T00:25:22.662Z,99.90
2019-04-07T00:27:52.383Z,99.90
2019-04-07T00:30:22.394Z,99.90
2019-04-07T00:32:52.027Z,99.90
2019-04-07T00:35:28.112Z,99.90
2019-04-07T00:37:53.195Z,99.90
2019-04-07T00:40:22.786Z,99.90
2019-04-07T00:42:52.601Z,99.90
2019-04-07T00:45:22.227Z,99.90
2019-04-07T00:47:52.549Z,99.90
2019-04-07T00:50:22.930Z,99.90
2019-04-07T00:52:53.093Z,99.90
2019-04-07T00:55:23.157Z,99.90
2019-04-07T00:57:52.962Z,99.90
2019-04-07T01:00:24.406Z,99.90
2019-04-07T01:02:54.161Z,99.90
2019-04-07T01:05:35.438Z,99.90
2019-04-07T01:07:56.420Z,99.90
2019-04-07T01:10:27.279Z,99.90
2019-04-07T01:13:03.195Z,99.90
2019-04-07T01:15:33.096Z,99.90
2019-04-07T01:18:02.834Z,99.90
2019-04-07T01:20:32.416Z,99.90
2019-04-07T01:23:02.801Z,99.90
2019-04-07T01:25:32.627Z,99.90
2019-04-07T01:28:02.502Z,99.90
2019-04-07T01:30:32.686Z,99.90
2019-04-07T01:33:02.325Z,99.90
2019-04-07T01:35:32.071Z,99.90
2019-04-07T01:38:02.404Z,99.90
2019-04-07T01:40:32.210Z,99.90
2019-04-07T01:43:13.174Z,99.90
2019-04-07T01:46:00.217Z,99.90
2019-04-07T01:48:47.288Z,99.90
2019-04-07T01:51:38.633Z,99.90
2019-04-07T01:54:42.173Z,99.90
2019-04-07T01:57:49.263Z,99.90
2019-04-07T02:00:44.589Z,99.90
2019-04-07T02:03:42.249Z,99.90
2019-04-07T02:06:32.019Z,99.90
2019-04-07T02:09:28.994Z,99.90
2019-04-07T02:12:39.264Z,99.90
2019-04-07T02:15:26.005Z,99.90
2019-04-07T02:18:04.360Z,99.90
2019-04-07T02:24:37.434Z,99.90
2019-04-07T02:27:33.925Z,99.90
2019-04-07T02:30:24.156Z,99.90
2019-04-07T02:33:12.737Z,99.90
2019-04-07T02:36:15.657Z,99.90
2019-04-07T02:38:56.231Z,99.90
2019-04-07T02:41:48.987Z,99.90
2019-04-07T02:45:02.153Z,99.90
2019-04-07T02:47:51.484Z,99.90
2019-04-07T02:50:43.356Z,99.90
2019-04-07T02:53:36.929Z,99.90
2019-04-07T02:56:29.330Z,99.90
2019-04-07T02:59:04.733Z,99.90
2019-04-07T03:01:46.708Z,99.90
2019-04-07T03:04:41.560Z,99.90
2019-04-07T03:07:41.457Z,99.90
2019-04-07T03:10:26.081Z,99.90
2019-04-07T03:13:14.671Z,99.90
2019-04-07T03:15:58.637Z,99.90
2019-04-07T03:18:46.345Z,99.90
2019-04-07T03:24:38.639Z,99.90
2019-04-07T03:27:54.829Z,99.90
2019-04-07T03:30:44.940Z,99.90
2019-04-07T03:33:48.088Z,99.90
2019-04-07T03:37:17.248Z,99.90
2019-04-07T03:39:40.907Z,99.90
2019-04-07T03:42:29.907Z,99.90
2019-04-07T03:45:20.331Z,99.90
2019-04-07T03:48:02.055Z,99.90
2019-04-07T03:50:57.546Z,99.90
2019-04-07T03:53:35.664Z,99.90
2019-04-07T03:56:30.964Z,99.90
2019-04-07T03:59:11.737Z,99.90
2019-04-07T04:02:00.871Z,99.90
2019-04-07T04:05:06.898Z,99.90
2019-04-07T04:07:59.612Z,99.90
2019-04-07T04:10:44.984Z,99.90
2019-04-07T04:13:36.021Z,99.90
2019-04-07T04:16:28.568Z,99.90
2019-04-07T04:19:02.470Z,99.90
2019-04-07T04:21:40.377Z,99.90
2019-04-07T04:24:10.475Z,99.90
2019-04-07T04:26:46.013Z,99.90
2019-04-07T04:29:24.587Z,99.90
2019-04-07T04:32:09.782Z,99.90
2019-04-07T04:34:43.920Z,99.90
2019-04-07T04:37:39.907Z,99.90
2019-04-07T04:40:14.057Z,99.90
2019-04-07T04:42:53.811Z,99.90
2019-04-07T04:45:29.648Z,99.90
2019-04-07T04:48:13.925Z,99.90
2019-04-07T04:50:58.264Z,99.90
2019-04-07T04:53:39.889Z,99.90
2019-04-07T04:56:13.456Z,99.90
2019-04-07T04:58:52.040Z,99.90
2019-04-07T05:01:28.889Z,99.90
2019-04-07T05:03:59.418Z,99.90
2019-04-07T05:06:34.692Z,99.90
2019-04-07T05:09:17.911Z,99.90
2019-04-07T05:11:51.852Z,99.90
2019-04-07T05:14:25.776Z,99.90
2019-04-07T05:17:07.372Z,99.90
2019-04-07T05:19:43.246Z,99.90
2019-04-07T05:22:13.813Z,99.90
2019-04-07T05:24:43.955Z,99.90
2019-04-07T05:27:17.407Z,99.90
2019-04-07T05:29:51.066Z,99.90
2019-04-07T05:32:28.570Z,99.90
2019-04-07T05:34:59.075Z,99.90
2019-04-07T05:37:32.902Z,99.90
2019-04-07T05:40:06.263Z,99.90
2019-04-07T05:42:36.397Z,99.90
2019-04-07T05:45:07.425Z,99.90
2019-04-07T05:47:43.646Z,99.90
2019-04-07T05:50:21.271Z,99.90
2019-04-07T05:52:53.997Z,99.90
2019-04-07T05:55:27.182Z,99.90
2019-04-07T05:57:57.576Z,99.90
2019-04-07T06:00:28.591Z,99.90
2019-04-07T06:03:05.505Z,99.90
2019-04-07T06:05:34.484Z,99.90
2019-04-07T06:08:20.871Z,99.90
2019-04-07T06:10:36.993Z,99.90
2019-04-07T06:13:07.386Z,99.90
2019-04-07T06:15:38.181Z,99.90
2019-04-07T06:18:08.589Z,99.90
2019-04-07T06:20:47.558Z,99.90
2019-04-07T06:23:23.414Z,99.90
2019-04-07T06:25:55.593Z,99.90
2019-04-07T06:28:26.071Z,99.90
2019-04-07T06:30:59.618Z,99.90
2019-04-07T06:33:29.727Z,99.90
2019-04-07T06:36:03.824Z,99.90
2019-04-07T06:38:41.555Z,99.90
2019-04-07T06:41:09.224Z,99.90
2019-04-07T06:43:52.794Z,99.90
2019-04-07T06:46:45.583Z,99.90
2019-04-07T06:49:27.587Z,99.90
2019-04-07T06:52:14.697Z,99.90
2019-04-07T06:55:04.557Z,99.90
2019-04-07T06:57:52.626Z,99.90
2019-04-07T07:01:02.334Z,99.90
2019-04-07T07:03:42.057Z,99.90
2019-04-07T07:06:48.292Z,99.90
2019-04-07T07:09:45.935Z,99.90
2019-04-07T07:12:47.433Z,99.90
2019-04-07T07:16:01.548Z,99.90
2019-04-07T07:19:02.632Z,99.90
2019-04-07T07:21:43.518Z,99.90
2019-04-07T07:24:29.510Z,99.90
2019-04-07T07:27:00.353Z,99.90
2019-04-07T07:29:30.885Z,99.90
2019-04-07T07:32:04.922Z,99.90
2019-04-07T07:34:39.898Z,99.90
2019-04-07T07:37:18.330Z,99.90
2019-04-07T07:39:54.505Z,99.90
2019-04-07T07:42:27.722Z,99.90
2019-04-07T07:44:58.328Z,99.90
2019-04-07T07:47:28.547Z,99.90
2019-04-07T07:50:04.915Z,99.90
2019-04-07T07:52:33.044Z,99.90
2019-04-07T07:55:06.347Z,99.90
2019-04-07T07:57:39.037Z,99.90
2019-04-07T08:00:16.019Z,99.90
2019-04-07T08:02:51.457Z,99.90
2019-04-07T08:05:20.581Z,99.60
2019-04-07T08:07:51.229Z,92.60
2019-04-07T08:10:23.355Z,90.30
2019-04-07T08:12:55.162Z,81.20
2019-04-07T08:15:31.971Z,84.30
2019-04-07T08:18:03.191Z,72.00
2019-04-07T08:20:31.855Z,71.30
2019-04-07T08:23:02.663Z,70.00
2019-04-07T08:25:33.588Z,69.20
2019-04-07T08:28:04.690Z,65.40
2019-04-07T08:30:36.045Z,67.30
2019-04-07T08:33:09.372Z,71.20
2019-04-07T08:35:42.656Z,72.00
2019-04-07T08:38:13.832Z,65.20
2019-04-07T08:40:53.962Z,66.60
2019-04-07T08:43:29.314Z,68.50
2019-04-07T08:46:02.228Z,71.30
2019-04-07T08:48:32.209Z,64.40
2019-04-07T08:51:05.867Z,66.50
2019-04-07T08:53:38.885Z,65.40
2019-04-07T08:56:12.019Z,64.50
2019-04-07T08:58:42.469Z,65.70
2019-04-07T09:01:12.669Z,67.10
2019-04-07T09:03:49.633Z,63.70
2019-04-07T09:06:19.834Z,62.40
2019-04-07T09:08:53.206Z,61.50
2019-04-07T09:11:27.058Z,63.50
2019-04-07T09:13:58.197Z,63.70
2019-04-07T09:16:59.984Z,60.90
2019-04-07T09:19:40.031Z,62.30
2019-04-07T09:22:29.728Z,62.60
2019-04-07T09:25:18.238Z,59.50
2019-04-07T09:28:23.705Z,62.90
2019-04-07T09:31:03.587Z,61.50
2019-04-07T09:34:01.431Z,61.20
2019-04-07T09:36:51.617Z,60.60
2019-04-07T09:39:56.907Z,59.20
2019-04-07T09:42:45.995Z,60.90
2019-04-07T09:45:39.390Z,60.20
2019-04-07T09:48:25.280Z,61.00
2019-04-07T09:51:29.797Z,61.80
2019-04-07T09:54:42.631Z,61.70
2019-04-07T09:57:23.599Z,62.40
2019-04-07T10:00:27.675Z,61.50
2019-04-07T10:03:32.318Z,59.70
2019-04-07T10:06:13.189Z,61.30
2019-04-07T10:08:49.845Z,59.20
2019-04-07T10:11:48.761Z,61.00
2019-04-07T10:14:50.342Z,63.30
2019-04-07T10:17:31.774Z,59.50
2019-04-07T10:23:32.145Z,59.90
2019-04-07T10:26:27.894Z,59.70
2019-04-07T10:29:26.361Z,57.30
2019-04-07T10:32:23.661Z,58.40
2019-04-07T10:35:12.515Z,59.10
2019-04-07T10:37:56.868Z,61.50
2019-04-07T10:40:54.504Z,60.90
2019-04-07T10:43:42.528Z,61.70
2019-04-07T10:46:49.201Z,65.00
2019-04-07T10:49:57.896Z,62.30
2019-04-07T10:52:43.658Z,62.40
2019-04-07T10:55:22.222Z,59.70
2019-04-07T10:57:59.844Z,59.90
2019-04-07T11:00:49.495Z,57.10
2019-04-07T11:03:54.547Z,57.60
2019-04-07T11:06:48.316Z,58.90
2019-04-07T11:09:40.573Z,59.80
2019-04-07T11:12:33.251Z,59.00
2019-04-07T11:15:13.786Z,58.60
2019-04-07T11:17:50.322Z,58.10
2019-04-07T11:20:33.956Z,56.20
2019-04-07T11:23:18.695Z,59.90
2019-04-07T11:26:05.391Z,58.00
2019-04-07T11:28:56.904Z,57.80
2019-04-07T11:31:35.159Z,56.90
2019-04-07T11:34:22.839Z,57.80
2019-04-07T11:37:06.028Z,58.10
2019-04-07T11:40:04.804Z,58.90
2019-04-07T11:43:08.764Z,57.60
2019-04-07T11:45:56.182Z,56.20
2019-04-07T11:48:49.412Z,62.70
2019-04-07T11:51:24.689Z,64.00
2019-04-07T11:54:25.207Z,60.70
2019-04-07T11:57:20.443Z,63.30
2019-04-07T12:00:20.682Z,61.50
2019-04-07T12:03:17.116Z,58.40
2019-04-07T12:06:16.819Z,57.90
2019-04-07T12:09:20.662Z,57.50
2019-04-07T12:12:22.916Z,57.70
2019-04-07T12:15:10.405Z,59.60
2019-04-07T12:18:01.645Z,58.60
2019-04-07T12:20:42.342Z,59.90
2019-04-07T12:23:30.649Z,61.10
2019-04-07T12:26:15.922Z,60.70
2019-04-07T12:28:54.564Z,59.70
2019-04-07T12:31:47.601Z,59.40
2019-04-07T12:34:30.229Z,58.30
2019-04-07T12:37:15.607Z,57.60
2019-04-07T12:39:58.817Z,59.10
2019-04-07T12:42:50.271Z,56.90
2019-04-07T12:45:38.791Z,59.20
2019-04-07T12:48:19.495Z,56.60
2019-04-07T12:50:55.289Z,57.20
2019-04-07T12:53:43.373Z,58.00
2019-04-07T12:56:23.109Z,56.50
2019-04-07T12:59:09.589Z,56.90
2019-04-07T13:02:06.870Z,56.30
2019-04-07T13:04:53.457Z,56.40
2019-04-07T13:07:41.615Z,55.60
2019-04-07T13:10:41.736Z,53.80
2019-04-07T13:13:18.682Z,54.20
2019-04-07T13:16:26.419Z,54.80
2019-04-07T13:19:15.553Z,56.60
2019-04-07T13:22:04.303Z,57.10
2019-04-07T13:24:52.870Z,55.60
2019-04-07T13:27:41.591Z,54.50
2019-04-07T13:30:28.853Z,53.60
2019-04-07T13:33:19.408Z,51.10
2019-04-07T13:36:09.344Z,53.50
2019-04-07T13:38:46.891Z,52.60
2019-04-07T13:41:38.726Z,52.70
2019-04-07T13:44:24.385Z,53.00
2019-04-07T13:47:15.808Z,51.40
2019-04-07T13:50:02.591Z,51.90
2019-04-07T13:52:53.189Z,54.20
2019-04-07T13:55:43.788Z,51.80
2019-04-07T13:58:37.485Z,53.60
2019-04-07T14:01:25.707Z,52.90
2019-04-07T14:04:21.520Z,54.70
2019-04-07T14:07:10.016Z,52.30
2019-04-07T14:10:05.404Z,52.20
2019-04-07T14:12:53.310Z,52.90
2019-04-07T14:15:42.017Z,52.30
2019-04-07T14:18:32.994Z,52.10
2019-04-07T14:21:21.472Z,52.80
2019-04-07T14:24:10.136Z,53.00
2019-04-07T14:26:54.257Z,53.50
2019-04-07T14:29:40.407Z,55.50
2019-04-07T14:32:22.012Z,55.80
2019-04-07T14:35:12.962Z,56.10
2019-04-07T14:38:01.148Z,54.70
2019-04-07T14:41:00.020Z,55.00
2019-04-07T14:43:36.335Z,55.00
2019-04-07T14:46:37.135Z,55.80
2019-04-07T14:49:29.792Z,56.80
2019-04-07T14:52:14.495Z,57.40
2019-04-07T14:55:02.780Z,58.60
2019-04-07T14:57:51.392Z,59.40
2019-04-07T15:00:51.430Z,59.70
2019-04-07T15:03:21.373Z,62.10
2019-04-07T15:05:55.167Z,61.60
2019-04-07T15:08:47.496Z,62.00
2019-04-07T15:11:45.545Z,62.50
2019-04-07T15:14:14.966Z,64.10
2019-04-07T15:16:45.041Z,67.20
2019-04-07T15:19:14.487Z,68.30
2019-04-07T15:21:44.150Z,71.80
2019-04-07T15:24:13.614Z,73.50
2019-04-07T15:26:46.970Z,77.40
2019-04-07T15:29:14.572Z,87.10
2019-04-07T15:31:44.043Z,95.20
2019-04-07T15:34:14.401Z,99.90
2019-04-07T15:36:44.210Z,99.90
2019-04-07T15:39:13.466Z,99.90
2019-04-07T15:41:44.197Z,99.90
2019-04-07T15:44:15.241Z,99.90
2019-04-07T15:46:49.022Z,99.90
2019-04-07T15:49:15.470Z,99.90
2019-04-07T15:51:45.223Z,99.90
2019-04-07T15:54:14.717Z,99.90
2019-04-07T15:56:48.090Z,99.90
2019-04-07T15:59:17.632Z,99.90
2019-04-07T16:01:46.184Z,99.90
2019-04-07T16:04:15.966Z,99.90
2019-04-07T16:06:48.150Z,99.90
2019-04-07T16:09:29.633Z,99.90
2019-04-07T16:11:49.328Z,99.90
2019-04-07T16:14:18.249Z,99.90
2019-04-07T16:16:47.536Z,99.90
2019-04-07T16:19:21.941Z,99.90
2019-04-07T16:21:48.223Z,99.90
2019-04-07T16:24:17.850Z,99.90
2019-04-07T16:26:47.895Z,99.90
2019-04-07T16:29:19.051Z,99.90
2019-04-07T16:31:48.881Z,99.90
2019-04-07T16:34:19.183Z,99.90
2019-04-07T16:36:51.057Z,99.90
2019-04-07T16:39:21.110Z,99.90
2019-04-07T16:41:50.964Z,99.90
2019-04-07T16:44:20.536Z,99.90
2019-04-07T16:46:54.615Z,99.90
2019-04-07T16:49:21.851Z,99.90
2019-04-07T16:51:51.654Z,99.90
2019-04-07T16:54:21.743Z,99.90
2019-04-07T16:56:55.791Z,99.90
2019-04-07T16:59:23.001Z,99.90
2019-04-07T17:01:55.942Z,99.90
2019-04-07T17:04:31.090Z,99.90
2019-04-07T17:07:14.166Z,99.90
2019-04-07T17:09:41.449Z,99.90
2019-04-07T17:12:15.029Z,99.90
2019-04-07T17:14:45.877Z,99.90
2019-04-07T17:17:20.305Z,99.90
2019-04-07T17:19:48.463Z,99.90
2019-04-07T17:22:19.641Z,99.90
2019-04-07T17:24:50.091Z,99.90
2019-04-07T17:27:20.508Z,99.90
2019-04-07T17:29:54.118Z,99.90
2019-04-07T17:32:21.898Z,99.90
2019-04-07T17:34:51.903Z,99.90
2019-04-07T17:37:25.576Z,99.90
2019-04-07T17:40:11.211Z,99.90
2019-04-07T17:42:39.852Z,99.90
2019-04-07T17:45:27.536Z,99.90
2019-04-07T17:48:20.230Z,99.90
2019-04-07T17:51:10.099Z,99.90
2019-04-07T17:53:59.013Z,99.90
2019-04-07T17:57:01.165Z,99.90
2019-04-07T17:59:48.482Z,99.90
2019-04-07T18:02:38.597Z,99.90
2019-04-07T18:05:26.567Z,99.90
2019-04-07T18:08:05.854Z,99.90
2019-04-07T18:11:02.248Z,99.90
2019-04-07T18:13:51.273Z,99.90
2019-04-07T18:16:39.601Z,99.90
2019-04-07T18:19:31.556Z,99.90
2019-04-07T18:22:20.496Z,99.90
2019-04-07T18:25:14.417Z,99.90
2019-04-07T18:28:08.758Z,99.90
2019-04-07T18:30:50.397Z,99.90
2019-04-07T18:33:51.512Z,99.90
2019-04-07T18:36:56.169Z,99.90
2019-04-07T18:39:39.864Z,99.90
2019-04-07T18:42:31.378Z,99.90
2019-04-07T18:45:15.839Z,99.90
2019-04-07T18:47:59.701Z,99.90
2019-04-07T18:50:40.067Z,99.90
2019-04-07T18:53:32.734Z,99.90
2019-04-07T18:56:11.617Z,99.90
2019-04-07T18:58:58.525Z,99.90
2019-04-07T19:01:47.172Z,99.90
2019-04-07T19:04:34.901Z,99.90
2019-04-07T19:07:19.339Z,99.90
2019-04-07T19:10:20.055Z,99.90
2019-04-07T19:13:05.623Z,99.90
2019-04-07T19:16:04.324Z,99.90
2019-04-07T19:18:44.125Z,99.90
2019-04-07T19:21:24.753Z,99.90
2019-04-07T19:24:00.978Z,99.90
2019-04-07T19:26:39.206Z,99.90
2019-04-07T19:29:30.271Z,99.90
2019-04-07T19:32:22.421Z,99.90
2019-04-07T19:35:11.654Z,99.90
2019-04-07T19:37:52.760Z,99.90
2019-04-07T19:40:40.781Z,99.90
2019-04-07T19:43:35.198Z,99.90
2019-04-07T19:46:30.213Z,99.90
2019-04-07T19:49:17.834Z,99.90
2019-04-07T19:52:07.066Z,99.90
2019-04-07T19:54:49.430Z,99.90
2019-04-07T19:57:34.401Z,99.90
2019-04-07T20:00:26.616Z,99.90
2019-04-07T20:03:20.014Z,99.90
2019-04-07T20:06:24.793Z,99.90
2019-04-07T20:09:11.600Z,99.90
2019-04-07T20:12:08.588Z,99.90
2019-04-07T20:15:04.170Z,99.90
2019-04-07T20:17:58.429Z,99.90
2019-04-07T20:20:46.666Z,99.90
2019-04-07T20:23:35.766Z,99.90
2019-04-07T20:26:24.128Z,99.90
2019-04-07T20:29:19.360Z,99.90
2019-04-07T20:32:08.505Z,99.90
2019-04-07T20:34:55.899Z,99.90
2019-04-07T20:37:42.672Z,99.90
2019-04-07T20:40:42.983Z,99.90
2019-04-07T20:43:23.547Z,99.90
2019-04-07T20:46:05.074Z,99.90
2019-04-07T20:48:59.353Z,99.90
2019-04-07T20:51:50.608Z,99.90
2019-04-07T20:54:42.216Z,99.90
2019-04-07T20:57:29.133Z,99.90
2019-04-07T21:00:18.621Z,99.90
2019-04-07T21:03:15.303Z,99.90
2019-04-07T21:05:55.975Z,99.90
2019-04-07T21:09:03.700Z,99.90
2019-04-07T21:11:46.959Z,99.90
2019-04-07T21:14:41.824Z,99.90
2019-04-07T21:17:30.405Z,99.90
2019-04-07T21:20:11.774Z,99.90
2019-04-07T21:23:03.596Z,99.90
2019-04-07T21:25:44.589Z,99.90
2019-04-07T21:28:36.155Z,99.90
2019-04-07T21:31:18.626Z,99.90
2019-04-07T21:34:12.426Z,99.90
2019-04-07T21:36:50.555Z,99.90
2019-04-07T21:39:41.798Z,99.90
2019-04-07T21:42:37.953Z,99.90
2019-04-07T21:45:40.997Z,99.90
2019-04-07T21:48:17.891Z,99.90
2019-04-07T21:51:02.359Z,99.90
2019-04-07T21:53:36.803Z,99.90
2019-04-07T21:56:34.800Z,99.90
2019-04-07T21:59:21.621Z,99.90
2019-04-07T22:02:19.462Z,99.90
2019-04-07T22:05:07.898Z,99.90
2019-04-07T22:08:04.448Z,99.90
2019-04-07T22:10:30.762Z,99.90
2019-04-07T22:13:03.668Z,99.90
2019-04-07T22:15:42.146Z,99.90
2019-04-07T22:18:06.285Z,99.90
2019-04-07T22:20:34.933Z,99.90
2019-04-07T22:23:06.267Z,99.90
2019-04-07T22:25:44.141Z,99.90
2019-04-07T22:28:13.818Z,99.90
2019-04-07T22:30:44.811Z,99.90
2019-04-07T22:33:14.033Z,99.90
2019-04-07T22:35:44.492Z,99.90
2019-04-07T22:38:14.978Z,99.90
2019-04-07T22:40:44.359Z,99.90
2019-04-07T22:43:16.666Z,99.90
2019-04-07T22:45:55.762Z,99.90
2019-04-07T22:48:15.434Z,99.90
2019-04-07T22:50:45.404Z,99.90
2019-04-07T22:53:14.861Z,99.90
2019-04-07T22:55:44.175Z,99.90
2019-04-07T22:58:13.896Z,99.90
2019-04-07T23:00:43.218Z,99.90
2019-04-07T23:03:12.579Z,99.90
2019-04-07T23:05:41.856Z,99.90
2019-04-07T23:08:11.140Z,99.90
2019-04-07T23:10:40.821Z,99.90
2019-04-07T23:13:10.092Z,99.90
2019-04-07T23:15:44.301Z,99.90
2019-04-07T23:18:10.408Z,99.90
2019-04-07T23:20:39.835Z,99.90
2019-04-07T23:23:09.055Z,99.90
2019-04-07T23:25:38.553Z,99.90
2019-04-07T23:28:08.947Z,99.90
2019-04-07T23:30:38.170Z,99.90
2019-04-07T23:33:08.318Z,99.90
2019-04-07T23:35:37.783Z,99.90
2019-04-07T23:38:07.896Z,99.90
2019-04-07T23:40:37.750Z,99.90
2019-04-07T23:43:07.076Z,99.90
2019-04-07T23:45:36.305Z,99.90
2019-04-07T23:48:06.832Z,99.90
2019-04-07T23:50:36.276Z,99.90
2019-04-07T23:53:41.560Z,99.90
2019-04-07T23:56:10.804Z,99.90
2019-04-07T23:58:40.119Z,99.90
